Goshen, Indiana
Current Conditions -  °F | °C
As of 11:53 AM on Wednesday 22 Oct 2014 (Local Time) from KGSH Reporting Station
Scattered Clouds Scattered Clouds  
Wind Chill: 44°   Ceiling: Unl
Heat Index: 48°   Visibility: 10mi
Dew Point: 39°   Wind: 8mph
Humidity: 71%   Direction: 70°ENE
Pressure: 30.36"   Gusts: NA
Location:  41.59°N, 85.84°W
Report Text: KGSH 221553Z AUTO 07007KT 10SM SCT018 09/04 A3036 RMK AO2 SLP287 T00890039
Loading
Personal Weather Stations






























Interactive Weather Map
Tropical Storm Tracking
New forecast layout! Learn more

10-Day Weather Forecast

Advertisements
Track Severe Weather on mobile